Terminal Aerodrome Forecast
Issued by NWS

Home | Current Version | Previous Version | Text Only | Print | Product List | Glossary On
Versions: 1 2 3 4 5 6 7 8 9 10 11 12 13 14 15 16
420
FTAK31 PAJN 101504 AAA
TAFAGY
TAF AMD
PAGY 101504Z 1015/1112 04011KT P6SM OVC050
      TEMPO 1015/1019 -RA
     FM101900 04005KT P6SM VCSH SCT025 OVC050
     FM110500 04008KT P6SM -RA OVC040
     FM111000 20010KT P6SM -RA OVC050
      AMD LTD TO CLD VIS AND WIND=

USA.gov is the U.S. government's official web portal to all federal, state and local government web resources and services.